Time;durP1;ratioP1;P1;durP2;ratioP2;P2;SDS_P1;SDS_P2;PMS_P1;PMS_P2;Temp;Humidity;BMP_temperature;BMP_pressure;BME280_temperature;BME280_humidity;BME280_pressure;Samples;Min_cycle;Max_cycle;Signal;HPM_P1;HPM_P2
2021/09/07 00:01:31;;;;;;;10.18;6.30;;;16.20;99.00;;;;;;5090987;28;20489;-86
2021/09/07 00:03:58;;;;;;;9.80;6.57;;;16.10;99.50;;;;;;5107205;28;20413;-87
2021/09/07 00:06:25;;;;;;;9.90;6.70;;;16.00;99.90;;;;;;5093328;28;20507;-87
2021/09/07 00:08:52;;;;;;;10.05;6.95;;;16.00;99.90;;;;;;5093838;28;20397;-88
2021/09/07 00:11:19;;;;;;;9.13;6.10;;;16.00;99.90;;;;;;5093717;28;20048;-87
2021/09/07 00:13:46;;;;;;;8.80;5.82;;;16.10;99.90;;;;;;5093844;28;20039;-87
2021/09/07 00:16:15;;;;;;;10.52;6.45;;;16.10;99.90;;;;;;5093734;28;20040;-87
2021/09/07 00:18:42;;;;;;;9.45;6.57;;;16.20;99.90;;;;;;5093776;28;20058;-87
2021/09/07 00:21:09;;;;;;;10.52;6.85;;;16.20;99.90;;;;;;5093237;28;20074;-87
2021/09/07 00:23:36;;;;;;;8.95;6.28;;;16.20;99.80;;;;;;5093693;28;20122;-86
2021/09/07 00:26:03;;;;;;;10.00;6.57;;;16.20;99.80;;;;;;5093500;28;20036;-87
2021/09/07 00:28:30;;;;;;;8.32;6.28;;;16.20;99.90;;;;;;5093575;28;20046;-86
2021/09/07 00:30:57;;;;;;;8.80;6.40;;;16.10;99.90;;;;;;5093027;28;20040;-87
2021/09/07 00:33:26;;;;;;;10.88;6.80;;;16.20;99.90;;;;;;5092976;28;20060;-87
2021/09/07 00:35:53;;;;;;;12.55;6.82;;;16.20;99.90;;;;;;5093646;28;20044;-86
2021/09/07 00:38:20;;;;;;;10.57;7.03;;;16.10;99.80;;;;;;5093117;28;20050;-87
2021/09/07 00:40:47;;;;;;;8.65;6.25;;;16.10;99.90;;;;;;5109142;28;20040;-86
2021/09/07 00:43:14;;;;;;;10.15;6.78;;;16.10;99.90;;;;;;5092994;28;20512;-86
2021/09/07 00:45:41;;;;;;;9.80;6.50;;;16.10;99.80;;;;;;5093629;28;20054;-87
2021/09/07 00:48:08;;;;;;;9.55;6.55;;;16.10;99.80;;;;;;5092995;28;20048;-86
2021/09/07 00:50:36;;;;;;;11.68;6.90;;;16.00;99.50;;;;;;5092996;28;20047;-86
2021/09/07 00:53:04;;;;;;;9.15;6.10;;;15.90;99.30;;;;;;5092673;28;20481;-85
2021/09/07 00:55:33;;;;;;;10.48;6.65;;;15.80;99.40;;;;;;5085781;28;20079;-87
2021/09/07 00:58:03;;;;;;;10.98;6.75;;;15.70;99.60;;;;;;5093727;28;20048;-87
2021/09/07 01:00:30;;;;;;;11.52;7.05;;;15.70;99.70;;;;;;5084170;28;20074;-87
2021/09/07 01:02:57;;;;;;;9.23;6.32;;;15.60;99.60;;;;;;5092905;28;20044;-86
2021/09/07 01:05:24;;;;;;;10.10;6.60;;;15.50;99.70;;;;;;5092797;28;20133;-86
2021/09/07 01:07:53;;;;;;;8.95;6.25;;;15.50;99.90;;;;;;5092867;28;20500;-86
2021/09/07 01:10:20;;;;;;;8.75;5.97;;;15.50;99.90;;;;;;5092700;28;20044;-87
2021/09/07 01:12:48;;;;;;;9.10;6.65;;;15.50;99.90;;;;;;5092451;28;20044;-86
2021/09/07 01:15:16;;;;;;;11.40;6.65;;;15.50;99.90;;;;;;5108054;28;20126;-87
2021/09/07 01:17:43;;;;;;;9.73;6.70;;;15.50;99.90;;;;;;5092749;28;20040;-86
2021/09/07 01:20:12;;;;;;;9.43;6.30;;;15.50;99.90;;;;;;5092332;28;20051;-85
2021/09/07 01:22:39;;;;;;;10.15;6.80;;;15.50;99.90;;;;;;5091431;28;20186;-88
2021/09/07 01:25:09;;;;;;;8.25;6.20;;;15.40;99.90;;;;;;5092791;28;20044;-86
2021/09/07 01:27:36;;;;;;;9.38;6.45;;;15.40;99.90;;;;;;5092434;28;20051;-85
2021/09/07 01:30:04;;;;;;;12.25;7.38;;;15.50;99.90;;;;;;5092666;28;20123;-85
2021/09/07 01:32:31;;;;;;;9.40;6.53;;;15.50;99.90;;;;;;5085379;28;20042;-88
2021/09/07 01:34:58;;;;;;;9.38;6.82;;;15.50;99.90;;;;;;5092767;28;20085;-88
2021/09/07 01:37:26;;;;;;;9.68;6.57;;;15.40;99.90;;;;;;5093326;28;20048;-88
2021/09/07 01:39:53;;;;;;;12.02;6.53;;;15.40;99.90;;;;;;5093263;28;20042;-87
2021/09/07 01:42:24;;;;;;;9.65;6.10;;;15.40;99.90;;;;;;5093799;28;20050;-89
2021/09/07 01:44:51;;;;;;;9.68;6.75;;;15.30;99.90;;;;;;5097577;28;20048;-88
2021/09/07 01:47:18;;;;;;;10.00;6.45;;;15.30;99.90;;;;;;5096802;28;20126;-87
2021/09/07 01:49:45;;;;;;;9.15;6.32;;;15.20;99.90;;;;;;5096589;28;20036;-88
2021/09/07 01:52:15;;;;;;;10.68;6.95;;;15.20;99.90;;;;;;5096497;28;20036;-86
2021/09/07 01:54:43;;;;;;;9.05;6.28;;;15.20;99.90;;;;;;5096547;28;20485;-87
2021/09/07 01:57:13;;;;;;;7.63;5.72;;;15.10;99.90;;;;;;5096680;28;20050;-86
2021/09/07 01:59:41;;;;;;;10.02;6.43;;;15.10;99.90;;;;;;5096722;28;20135;-87
2021/09/07 02:02:08;;;;;;;13.65;6.78;;;15.10;99.90;;;;;;5096372;28;20051;-87
2021/09/07 02:04:35;;;;;;;10.30;6.97;;;15.10;99.90;;;;;;5096397;28;20040;-87
2021/09/07 02:07:02;;;;;;;11.38;7.10;;;15.10;99.90;;;;;;5096522;28;20044;-88
2021/09/07 02:09:29;;;;;;;10.65;6.80;;;15.10;99.90;;;;;;5096513;28;20126;-87
2021/09/07 02:11:57;;;;;;;10.18;6.97;;;;;;;;;;5096574;28;20123;-88
2021/09/07 02:14:27;;;;;;;12.00;6.95;;;14.90;99.90;;;;;;5093361;28;20131;-88
2021/09/07 02:16:56;;;;;;;12.20;7.30;;;14.90;99.90;;;;;;5093086;28;20477;-88
2021/09/07 02:19:23;;;;;;;10.18;6.65;;;14.80;99.90;;;;;;5093026;28;20566;-88
2021/09/07 02:21:50;;;;;;;9.85;7.13;;;14.70;99.90;;;;;;5108999;28;20570;-87
2021/09/07 02:24:18;;;;;;;10.98;7.15;;;14.70;99.90;;;;;;5093402;28;20774;-87
2021/09/07 02:26:45;;;;;;;9.18;6.10;;;14.70;99.90;;;;;;5093632;28;20054;-87
2021/09/07 02:29:12;;;;;;;10.88;7.00;;;14.70;99.90;;;;;;5093301;28;20805;-87
2021/09/07 02:31:39;;;;;;;9.43;6.70;;;14.60;99.90;;;;;;5093275;28;20126;-86
2021/09/07 02:34:07;;;;;;;9.60;6.38;;;14.60;99.90;;;;;;5092907;28;20147;-87
2021/09/07 02:36:36;;;;;;;10.88;6.75;;;14.60;99.90;;;;;;5092960;28;20515;-88
2021/09/07 02:39:04;;;;;;;10.55;6.88;;;14.60;99.90;;;;;;5093362;28;20043;-87
2021/09/07 02:41:31;;;;;;;10.52;6.97;;;14.70;99.90;;;;;;5093017;28;20801;-88
2021/09/07 02:43:58;;;;;;;9.70;6.80;;;14.70;99.90;;;;;;5092796;28;20044;-87
2021/09/07 02:46:26;;;;;;;10.20;6.47;;;14.60;99.90;;;;;;5092896;28;20048;-87
2021/09/07 02:48:53;;;;;;;9.70;6.60;;;14.60;99.90;;;;;;5093064;28;20044;-87
2021/09/07 02:51:21;;;;;;;9.88;6.40;;;14.60;99.90;;;;;;5092454;28;20055;-86
2021/09/07 02:53:49;;;;;;;9.50;6.93;;;14.60;99.90;;;;;;5091906;28;20461;-85
2021/09/07 02:56:16;;;;;;;9.43;6.57;;;14.60;99.90;;;;;;5091667;28;20043;-82
2021/09/07 02:58:44;;;;;;;10.35;6.80;;;14.60;99.90;;;;;;5091902;28;20070;-85
2021/09/07 03:01:11;;;;;;;10.25;6.57;;;14.60;99.90;;;;;;5091334;28;20521;-86
2021/09/07 03:03:38;;;;;;;10.50;6.70;;;14.60;99.90;;;;;;5091607;28;20052;-85
2021/09/07 03:06:05;;;;;;;9.45;6.18;;;14.60;99.90;;;;;;5091774;28;20036;-86
2021/09/07 03:08:33;;;;;;;10.95;7.00;;;14.60;99.90;;;;;;5091624;28;20477;-85
2021/09/07 03:11:01;;;;;;;9.35;6.40;;;14.60;99.90;;;;;;5091138;28;20398;-86
2021/09/07 03:13:28;;;;;;;9.75;6.53;;;14.60;99.90;;;;;;5091099;28;20040;-86
2021/09/07 03:15:55;;;;;;;8.98;6.30;;;14.50;99.90;;;;;;5091655;28;20040;-86
2021/09/07 03:18:22;;;;;;;10.18;6.72;;;14.50;99.90;;;;;;5091220;28;20044;-86
2021/09/07 03:20:49;;;;;;;9.52;6.70;;;14.50;99.90;;;;;;5091103;28;20194;-85
2021/09/07 03:23:16;;;;;;;10.45;6.85;;;14.50;99.90;;;;;;5090887;28;20131;-86
2021/09/07 03:25:45;;;;;;;10.13;6.18;;;14.50;99.90;;;;;;5091174;28;20052;-85
2021/09/07 03:28:12;;;;;;;10.25;6.60;;;14.40;99.90;;;;;;5090860;28;20052;-85
2021/09/07 03:30:39;;;;;;;11.25;6.82;;;14.40;99.90;;;;;;5091176;28;20527;-84
2021/09/07 03:33:06;;;;;;;10.35;6.50;;;14.40;99.90;;;;;;5090885;28;20541;-87
2021/09/07 03:35:34;;;;;;;8.70;6.28;;;14.40;99.90;;;;;;5091530;28;20118;-86
2021/09/07 03:38:01;;;;;;;10.55;7.53;;;14.40;99.90;;;;;;5092005;28;20040;-87
2021/09/07 03:40:28;;;;;;;10.32;6.80;;;14.40;99.90;;;;;;5091407;28;20050;-87
2021/09/07 03:42:57;;;;;;;10.85;6.80;;;14.30;99.90;;;;;;5092529;28;20048;-83
2021/09/07 03:45:24;;;;;;;8.55;6.40;;;14.30;99.90;;;;;;5090585;28;20056;-82
2021/09/07 03:47:51;;;;;;;11.38;6.60;;;14.30;99.90;;;;;;5090872;28;20044;-81
2021/09/07 03:50:18;;;;;;;11.00;7.07;;;14.30;99.90;;;;;;5090483;28;20046;-82
2021/09/07 03:52:46;;;;;;;9.07;6.30;;;14.30;99.90;;;;;;5090860;28;20044;-81
2021/09/07 03:55:14;;;;;;;10.63;7.18;;;14.30;99.90;;;;;;5090155;28;20166;-81
2021/09/07 03:57:41;;;;;;;9.43;6.60;;;14.30;99.90;;;;;;5090734;28;20610;-82
2021/09/07 04:00:12;;;;;;;10.35;6.90;;;14.30;99.90;;;;;;5090374;28;20067;-81
2021/09/07 04:02:39;;;;;;;10.80;7.22;;;14.30;99.90;;;;;;5093887;28;20127;-81
2021/09/07 04:05:08;;;;;;;9.52;6.97;;;14.20;99.90;;;;;;5092642;28;20051;-81
2021/09/07 04:07:35;;;;;;;11.07;6.57;;;14.10;99.90;;;;;;5093746;28;20126;-81
2021/09/07 04:10:02;;;;;;;10.20;6.90;;;14.00;99.90;;;;;;5093647;28;20127;-87
2021/09/07 04:12:29;;;;;;;9.63;6.90;;;13.90;99.90;;;;;;5093796;28;20488;-88
2021/09/07 04:14:56;;;;;;;9.25;6.57;;;13.80;99.90;;;;;;5094197;28;20051;-86
2021/09/07 04:17:25;;;;;;;10.38;7.20;;;13.70;99.90;;;;;;5093201;28;20043;-82
2021/09/07 04:19:52;;;;;;;10.23;7.05;;;13.70;99.90;;;;;;5093495;28;20052;-87
2021/09/07 04:22:19;;;;;;;9.63;6.68;;;13.60;99.90;;;;;;5092939;28;20229;-87
2021/09/07 04:24:46;;;;;;;11.68;7.18;;;13.60;99.90;;;;;;5093296;28;20142;-86
2021/09/07 04:27:13;;;;;;;11.70;7.57;;;13.50;99.90;;;;;;5093066;28;20503;-91
2021/09/07 04:29:40;;;;;;;10.23;6.93;;;13.50;99.90;;;;;;5093578;28;20044;-88
2021/09/07 04:32:07;;;;;;;9.18;6.35;;;13.50;99.90;;;;;;5094355;28;20048;-90
2021/09/07 04:34:36;;;;;;;10.52;6.97;;;13.50;99.90;;;;;;5093938;28;20554;-88
2021/09/07 04:37:03;;;;;;;11.82;6.78;;;13.50;99.90;;;;;;5093826;28;20048;-88
2021/09/07 04:39:30;;;;;;;10.45;6.93;;;13.60;99.90;;;;;;5093046;28;20046;-88
2021/09/07 04:41:58;;;;;;;10.40;7.03;;;13.60;99.90;;;;;;5094139;28;20046;-88
2021/09/07 04:44:25;;;;;;;9.55;6.70;;;13.70;99.90;;;;;;5093992;28;20048;-89
2021/09/07 04:46:52;;;;;;;11.25;7.28;;;13.70;99.90;;;;;;5093957;28;20062;-89
2021/09/07 04:49:19;;;;;;;13.55;8.07;;;13.60;99.90;;;;;;5093679;28;20473;-88
2021/09/07 04:51:47;;;;;;;10.52;6.78;;;13.70;99.90;;;;;;5093735;28;20400;-89
2021/09/07 04:54:15;;;;;;;9.93;6.78;;;13.70;99.90;;;;;;5093707;28;20078;-89
2021/09/07 04:56:42;;;;;;;10.57;6.93;;;13.70;99.90;;;;;;5093964;28;20054;-88
2021/09/07 04:59:09;;;;;;;9.23;6.78;;;13.70;99.90;;;;;;5094290;28;20051;-89
2021/09/07 05:01:36;;;;;;;9.52;6.88;;;13.70;99.90;;;;;;5093249;28;20044;-88
2021/09/07 05:04:03;;;;;;;10.35;6.82;;;13.70;99.90;;;;;;5093156;28;20382;-86
2021/09/07 05:06:30;;;;;;;11.70;7.57;;;13.80;99.90;;;;;;5093616;28;20048;-88
2021/09/07 05:08:58;;;;;;;10.38;7.20;;;13.70;99.90;;;;;;5093558;28;20405;-87
2021/09/07 05:11:25;;;;;;;11.02;6.72;;;13.80;99.90;;;;;;5093443;28;20044;-88
2021/09/07 05:13:52;;;;;;;9.88;6.97;;;13.80;99.90;;;;;;5093178;28;20331;-87
2021/09/07 05:16:19;;;;;;;9.63;6.95;;;13.80;99.90;;;;;;5093102;28;20048;-88
2021/09/07 05:18:46;;;;;;;11.50;7.53;;;13.80;99.90;;;;;;5093164;28;20080;-87
2021/09/07 05:21:14;;;;;;;10.77;7.57;;;13.80;99.90;;;;;;5093146;28;20056;-88
2021/09/07 05:23:41;;;;;;;14.68;7.47;;;13.80;99.90;;;;;;5093297;28;20046;-88
2021/09/07 05:26:09;;;;;;;9.63;6.72;;;13.80;99.90;;;;;;5093068;28;20413;-88
2021/09/07 05:28:37;;;;;;;11.02;7.40;;;13.70;99.90;;;;;;5093048;28;20460;-88
2021/09/07 05:31:04;;;;;;;9.32;6.80;;;13.70;99.90;;;;;;5093045;28;20048;-89
2021/09/07 05:33:31;;;;;;;11.18;7.00;;;13.70;99.90;;;;;;5093141;28;20047;-89
2021/09/07 05:35:58;;;;;;;11.90;7.25;;;13.70;99.90;;;;;;5093352;28;20060;-88
2021/09/07 05:38:25;;;;;;;10.70;6.97;;;13.60;99.90;;;;;;5093334;28;20119;-89
2021/09/07 05:40:53;;;;;;;12.18;7.53;;;13.50;99.90;;;;;;5093062;28;20052;-89
2021/09/07 05:43:21;;;;;;;10.02;7.00;;;13.50;99.90;;;;;;5093187;28;20044;-89
2021/09/07 05:45:48;;;;;;;11.13;7.22;;;13.40;99.90;;;;;;5092986;28;20048;-89
2021/09/07 05:48:15;;;;;;;9.85;6.55;;;13.40;99.90;;;;;;5093269;28;20138;-89
2021/09/07 05:50:42;;;;;;;10.77;7.30;;;13.40;99.90;;;;;;5092072;28;20052;-89
2021/09/07 05:53:09;;;;;;;9.10;6.85;;;13.50;99.90;;;;;;5092950;28;20127;-89
2021/09/07 05:55:37;;;;;;;9.90;6.88;;;13.50;99.90;;;;;;5093051;28;20044;-89
2021/09/07 05:58:04;;;;;;;10.57;7.18;;;13.60;99.90;;;;;;5093312;28;20050;-89
2021/09/07 06:00:32;;;;;;;10.55;7.55;;;13.60;99.90;;;;;;5093274;28;20136;-88
2021/09/07 06:03:02;;;;;;;11.13;7.45;;;13.60;99.90;;;;;;5093358;28;20131;-89
2021/09/07 06:05:29;;;;;;;9.88;6.90;;;13.70;99.90;;;;;;5092964;28;20105;-88
2021/09/07 06:07:56;;;;;;;11.70;7.47;;;13.70;99.90;;;;;;5091617;28;20044;-88
2021/09/07 06:10:24;;;;;;;11.48;7.15;;;13.80;99.90;;;;;;5092948;28;20055;-88
2021/09/07 06:12:51;;;;;;;10.68;7.53;;;13.80;99.90;;;;;;5092838;28;20040;-87
2021/09/07 06:15:18;;;;;;;11.60;7.43;;;13.90;99.90;;;;;;5092707;28;20052;-88
2021/09/07 06:17:46;;;;;;;11.02;7.63;;;14.00;99.90;;;;;;5092794;28;20524;-89
2021/09/07 06:20:14;;;;;;;11.23;7.90;;;14.00;99.90;;;;;;5092658;28;20059;-87
2021/09/07 06:22:41;;;;;;;11.25;7.40;;;14.10;99.90;;;;;;5093259;28;20121;-88
2021/09/07 06:25:10;;;;;;;12.00;7.80;;;14.10;99.90;;;;;;5092820;28;20055;-88
2021/09/07 06:27:37;;;;;;;12.32;7.45;;;14.20;99.90;;;;;;5093080;28;20080;-88
2021/09/07 06:30:05;;;;;;;12.23;7.50;;;14.20;99.90;;;;;;5096135;28;20048;-88
2021/09/07 06:32:32;;;;;;;12.55;8.10;;;14.30;99.90;;;;;;5096839;28;20051;-88
2021/09/07 06:35:01;;;;;;;13.00;7.78;;;14.30;99.90;;;;;;5096655;28;20070;-88
2021/09/07 06:37:28;;;;;;;10.85;7.60;;;14.40;99.90;;;;;;5096354;28;20048;-88
2021/09/07 06:39:55;;;;;;;10.82;7.45;;;14.40;99.90;;;;;;5096048;28;20131;-88
2021/09/07 06:42:22;;;;;;;11.68;7.68;;;14.50;99.90;;;;;;5096618;28;20393;-88
2021/09/07 06:44:49;;;;;;;9.48;6.93;;;14.60;99.90;;;;;;5096315;28;20051;-87
2021/09/07 06:47:16;;;;;;;11.00;7.22;;;14.60;99.90;;;;;;5096212;28;20401;-88
2021/09/07 06:49:43;;;;;;;11.60;7.10;;;14.70;99.90;;;;;;5096351;28;20051;-88
2021/09/07 06:52:12;;;;;;;10.55;7.43;;;14.70;99.90;;;;;;5095853;28;20051;-88
2021/09/07 06:54:39;;;;;;;11.13;7.53;;;14.80;99.90;;;;;;5096080;28;20048;-88
2021/09/07 06:57:06;;;;;;;10.32;7.25;;;14.80;99.90;;;;;;5096238;28;20052;-87
2021/09/07 06:59:33;;;;;;;11.45;7.88;;;14.90;99.90;;;;;;5096046;28;20048;-88
2021/09/07 07:02:00;;;;;;;11.25;7.55;;;14.90;99.90;;;;;;5096242;28;20135;-88
2021/09/07 07:04:28;;;;;;;12.23;8.45;;;14.90;99.90;;;;;;5095955;28;20123;-88
2021/09/07 07:06:55;;;;;;;13.80;8.30;;;15.00;99.90;;;;;;5095463;28;20075;-88
2021/09/07 07:09:23;;;;;;;12.13;7.85;;;14.90;99.90;;;;;;5096052;28;20131;-89
2021/09/07 07:11:50;;;;;;;11.70;7.72;;;14.90;99.90;;;;;;5096143;28;20044;-88
2021/09/07 07:14:20;;;;;;;12.23;7.93;;;14.90;99.90;;;;;;5096282;28;20044;-88
2021/09/07 07:16:48;;;;;;;11.38;7.57;;;15.00;99.90;;;;;;5096007;28;20091;-88
2021/09/07 07:19:15;;;;;;;10.88;7.80;;;15.00;99.90;;;;;;5095840;28;20478;-90
2021/09/07 07:21:42;;;;;;;11.40;7.95;;;15.10;99.90;;;;;;5095671;28;20127;-92
2021/09/07 07:24:09;;;;;;;12.52;7.80;;;15.10;99.90;;;;;;5095181;28;20367;-91
2021/09/07 07:26:38;;;;;;;11.30;7.72;;;15.10;99.90;;;;;;5095148;28;20123;-91
2021/09/07 07:29:05;;;;;;;10.93;7.32;;;15.20;99.90;;;;;;5111826;28;20401;-91
2021/09/07 07:31:32;;;;;;;13.98;8.02;;;15.30;99.90;;;;;;5094912;28;20048;-87
2021/09/07 07:33:59;;;;;;;13.68;8.23;;;15.40;99.90;;;;;;5094537;28;20048;-91
2021/09/07 07:36:26;;;;;;;13.73;8.27;;;15.50;99.90;;;;;;5095925;28;20054;-93
2021/09/07 07:38:53;;;;;;;13.88;8.57;;;15.50;99.90;;;;;;5096712;28;20127;-92
2021/09/07 07:41:21;;;;;;;12.93;8.32;;;15.60;99.90;;;;;;5096342;28;20048;-94
2021/09/07 07:43:49;;;;;;;13.02;8.88;;;15.70;99.90;;;;;;5095945;28;20044;-93
2021/09/07 07:46:16;;;;;;;13.02;8.63;;;15.80;99.90;;;;;;5096059;28;20074;-93
2021/09/07 07:48:43;;;;;;;15.27;8.50;;;15.80;99.90;;;;;;5094270;28;20415;-93
2021/09/07 07:51:12;;;;;;;12.55;8.40;;;15.90;99.90;;;;;;5094876;28;20043;-92
2021/09/07 07:53:40;;;;;;;12.60;8.05;;;16.00;99.90;;;;;;5095965;28;20044;-93
2021/09/07 07:56:07;;;;;;;12.75;8.85;;;16.10;99.90;;;;;;5095841;28;20048;-92
2021/09/07 07:58:35;;;;;;;12.98;9.10;;;16.20;99.90;;;;;;5094580;28;20362;-92
2021/09/07 08:01:04;;;;;;;12.13;8.73;;;16.20;99.90;;;;;;5094214;28;20051;-91
2021/09/07 08:03:31;;;;;;;12.02;8.05;;;16.20;99.90;;;;;;5092849;28;20048;-92
2021/09/07 08:05:59;;;;;;;11.50;7.80;;;16.30;99.90;;;;;;5092250;28;20055;-92
2021/09/07 08:08:26;;;;;;;11.82;8.32;;;16.30;99.90;;;;;;5093191;28;20055;-92
2021/09/07 08:10:53;;;;;;;12.63;8.40;;;16.40;99.90;;;;;;5093048;28;20048;-92
2021/09/07 08:13:20;;;;;;;13.20;7.93;;;16.40;99.90;;;;;;5093261;28;20044;-91
2021/09/07 08:15:47;;;;;;;12.75;8.10;;;16.50;99.90;;;;;;5092648;28;20054;-93
2021/09/07 08:18:15;;;;;;;11.07;7.85;;;16.50;99.90;;;;;;5093113;28;20398;-91
2021/09/07 08:20:43;;;;;;;10.95;7.45;;;16.60;99.90;;;;;;5093502;28;20098;-92
2021/09/07 08:23:11;;;;;;;12.00;7.88;;;16.70;99.90;;;;;;5091509;28;20052;-90
2021/09/07 08:25:38;;;;;;;10.70;7.38;;;16.80;99.90;;;;;;5089976;28;20131;-85
2021/09/07 08:28:05;;;;;;;11.77;7.40;;;16.90;99.90;;;;;;5088348;28;20420;-86
2021/09/07 08:30:32;;;;;;;12.57;8.27;;;17.00;99.90;;;;;;5102311;28;20047;-85
2021/09/07 08:33:00;;;;;;;11.57;7.70;;;17.00;99.90;;;;;;5110055;28;20134;-85
2021/09/07 08:35:29;;;;;;;10.95;7.43;;;17.10;99.90;;;;;;5109861;28;20265;-85
2021/09/07 08:37:56;;;;;;;11.30;7.85;;;17.10;99.90;;;;;;5095521;28;20167;-81
2021/09/07 08:40:23;;;;;;;10.23;7.03;;;17.20;99.90;;;;;;5089392;28;20052;-81
2021/09/07 08:42:50;;;;;;;10.82;7.18;;;17.20;99.90;;;;;;5088772;28;20054;-81
2021/09/07 08:45:17;;;;;;;10.52;7.22;;;17.30;99.90;;;;;;5089440;28;20073;-81
2021/09/07 08:47:45;;;;;;;9.52;6.90;;;17.40;99.90;;;;;;5089204;28;20052;-81
2021/09/07 08:50:14;;;;;;;9.68;6.68;;;17.50;99.90;;;;;;5089543;28;20410;-80
2021/09/07 08:52:43;;;;;;;10.20;6.60;;;17.60;99.90;;;;;;5088667;28;20398;-81
2021/09/07 08:55:11;;;;;;;11.65;7.45;;;17.60;99.90;;;;;;5087870;28;20051;-80
2021/09/07 08:57:38;;;;;;;11.63;8.15;;;17.70;99.90;;;;;;5089037;28;20249;-81
2021/09/07 09:00:07;;;;;;;11.27;7.60;;;17.80;99.90;;;;;;5089096;28;20075;-80
2021/09/07 09:02:43;;;;;;;9.82;6.70;;;17.90;99.90;;;;;;5088539;28;20115;-81
2021/09/07 09:05:11;;;;;;;10.30;7.47;;;18.00;99.90;;;;;;5089063;28;20044;-81
2021/09/07 09:07:39;;;;;;;9.95;6.72;;;18.10;99.90;;;;;;5089171;28;20127;-81
2021/09/07 09:10:09;;;;;;;10.13;7.03;;;18.20;99.80;;;;;;5088243;28;20541;-82
2021/09/07 09:12:39;;;;;;;9.23;6.50;;;18.20;99.80;;;;;;5088809;28;20084;-82
2021/09/07 09:15:13;;;;;;;10.90;6.60;;;18.30;99.60;;;;;;5089316;28;20091;-81
2021/09/07 09:17:40;;;;;;;10.38;6.57;;;18.40;99.40;;;;;;5089081;28;20131;-81
2021/09/07 09:20:14;;;;;;;9.93;7.00;;;18.50;99.20;;;;;;5088547;28;20486;-81
2021/09/07 09:22:48;;;;;;;10.85;6.55;;;18.60;99.00;;;;;;5088429;28;20131;-81
2021/09/07 09:25:40;;;;;;;9.10;6.70;;;18.70;98.70;;;;;;5088664;28;20051;-80
2021/09/07 09:28:22;;;;;;;9.05;6.35;;;18.70;98.50;;;;;;5088968;28;20082;-81
2021/09/07 09:30:55;;;;;;;9.25;6.40;;;18.90;98.40;;;;;;5087710;28;20114;-81
2021/09/07 09:33:25;;;;;;;9.63;5.80;;;18.90;98.20;;;;;;5085885;28;20058;-80
2021/09/07 09:35:56;;;;;;;8.30;6.13;;;19.10;98.20;;;;;;5087740;28;20048;-81
2021/09/07 09:38:26;;;;;;;9.10;6.47;;;19.20;98.10;;;;;;5088645;28;20047;-80
2021/09/07 09:40:59;;;;;;;10.13;6.57;;;19.20;98.30;;;;;;5088708;28;20485;-80
2021/09/07 09:43:32;;;;;;;9.02;6.25;;;19.40;98.20;;;;;;5088507;28;20048;-80
2021/09/07 09:46:17;;;;;;;10.75;6.90;;;19.40;97.70;;;;;;5089627;28;20090;-81
2021/09/07 09:48:44;;;;;;;8.95;6.57;;;19.50;97.60;;;;;;5100482;28;20050;-81
2021/09/07 09:51:17;;;;;;;8.98;6.32;;;19.60;97.30;;;;;;5089750;28;20358;-81
2021/09/07 09:53:47;;;;;;;9.07;6.32;;;19.70;97.10;;;;;;5103340;28;20475;-81
2021/09/07 09:56:17;;;;;;;9.93;6.97;;;19.80;96.80;;;;;;5089727;28;20132;-81
2021/09/07 09:58:44;;;;;;;10.45;6.22;;;19.80;96.40;;;;;;5088593;28;20535;-80
2021/09/07 10:01:11;;;;;;;8.63;6.03;;;19.90;96.50;;;;;;5088669;28;20126;-80
2021/09/07 10:03:41;;;;;;;8.38;6.13;;;19.90;95.90;;;;;;5090166;28;20121;-80
2021/09/07 10:06:09;;;;;;;8.48;5.53;;;20.00;95.70;;;;;;5092448;28;20070;-80
2021/09/07 10:08:41;;;;;;;7.75;5.55;;;20.10;95.70;;;;;;5093688;28;20417;-80
2021/09/07 10:11:13;;;;;;;9.13;5.72;;;20.20;95.70;;;;;;5093202;28;20044;-81
2021/09/07 10:13:44;;;;;;;7.38;5.10;;;20.30;95.40;;;;;;5092457;28;20044;-81
2021/09/07 10:16:14;;;;;;;9.15;5.72;;;20.40;95.60;;;;;;5081567;28;20131;-82
2021/09/07 10:18:52;;;;;;;8.48;5.32;;;20.50;95.20;;;;;;5091485;28;20051;-80
2021/09/07 10:24:53;;;;;;;8.20;5.72;;;20.70;94.70;;;;;;5092754;28;20055;-80
2021/09/07 10:27:23;;;;;;;9.10;5.88;;;20.80;94.00;;;;;;5092390;28;20078;-80
2021/09/07 10:29:52;;;;;;;8.88;6.03;;;20.90;93.80;;;;;;5092737;28;20087;-80
2021/09/07 10:32:37;;;;;;;7.82;5.47;;;20.90;94.00;;;;;;5092335;28;20048;-82
2021/09/07 10:35:22;;;;;;;7.50;5.35;;;21.00;93.60;;;;;;5092448;28;20413;-82
2021/09/07 10:38:13;;;;;;;9.60;5.97;;;21.10;93.70;;;;;;5092609;28;20127;-82
2021/09/07 10:40:51;;;;;;;8.45;5.70;;;21.10;93.10;;;;;;5087715;28;20052;-83
2021/09/07 10:43:53;;;;;;;8.20;5.47;;;21.20;92.40;;;;;;5092767;28;20131;-83
2021/09/07 10:46:49;;;;;;;6.68;4.78;;;21.20;91.60;;;;;;5092504;28;20126;-83
2021/09/07 10:49:23;;;;;;;7.47;4.72;;;21.30;91.60;;;;;;5092429;28;20131;-83
2021/09/07 10:52:13;;;;;;;8.13;5.43;;;21.30;91.30;;;;;;5092872;28;20044;-83
2021/09/07 10:54:48;;;;;;;8.05;5.75;;;21.40;91.00;;;;;;5091588;28;20523;-82
2021/09/07 10:57:57;;;;;;;7.65;5.03;;;21.50;90.90;;;;;;5092951;28;20052;-82
2021/09/07 11:00:36;;;;;;;7.60;5.15;;;21.50;90.80;;;;;;5092411;28;20047;-82
2021/09/07 11:03:07;;;;;;;7.10;4.88;;;21.60;91.10;;;;;;5072481;28;20070;-83
2021/09/07 11:05:52;;;;;;;7.93;5.10;;;21.70;91.30;;;;;;5072163;28;20055;-84
2021/09/07 11:08:43;;;;;;;8.65;5.38;;;21.80;91.40;;;;;;5072257;28;20047;-85
2021/09/07 11:11:28;;;;;;;7.63;4.85;;;21.90;90.70;;;;;;5072388;28;20049;-83
2021/09/07 11:14:10;;;;;;;7.57;4.90;;;21.90;90.50;;;;;;5071921;28;20482;-82
2021/09/07 11:16:37;;;;;;;6.55;4.45;;;22.00;90.10;;;;;;5085781;28;20044;-82
2021/09/07 11:19:05;;;;;;;7.53;4.63;;;22.10;90.20;;;;;;5091453;28;20565;-83
2021/09/07 11:21:32;;;;;;;7.22;4.40;;;22.20;90.50;;;;;;5091772;28;20553;-82
2021/09/07 11:24:01;;;;;;;7.72;5.32;;;22.30;90.70;;;;;;5092098;28;20426;-81
2021/09/07 11:26:30;;;;;;;7.63;5.07;;;22.30;90.00;;;;;;5092030;28;20105;-82
2021/09/07 11:28:57;;;;;;;8.88;4.97;;;22.40;89.70;;;;;;5092050;28;20308;-83
2021/09/07 11:31:24;;;;;;;7.20;5.03;;;22.50;90.00;;;;;;5091687;28;20379;-82
2021/09/07 11:33:53;;;;;;;6.85;4.70;;;22.60;89.70;;;;;;5091427;28;20044;-82
2021/09/07 11:36:22;;;;;;;6.75;4.90;;;22.70;88.60;;;;;;5092261;28;20048;-81
2021/09/07 11:38:51;;;;;;;7.65;4.90;;;22.80;87.40;;;;;;5091893;28;20044;-83
2021/09/07 11:41:20;;;;;;;7.47;5.03;;;22.90;86.80;;;;;;5092046;28;20040;-80
2021/09/07 11:43:50;;;;;;;7.65;4.57;;;23.00;87.00;;;;;;5091674;28;20079;-82
2021/09/07 11:46:20;;;;;;;8.73;4.97;;;23.10;87.00;;;;;;5090870;28;20132;-82
2021/09/07 11:48:50;;;;;;;6.65;4.30;;;23.20;86.40;;;;;;5091800;28;20501;-83
2021/09/07 11:51:19;;;;;;;7.72;4.68;;;23.20;86.00;;;;;;5091780;28;20046;-82
2021/09/07 11:53:55;;;;;;;6.40;4.88;;;23.40;86.00;;;;;;5091567;28;20097;-82
2021/09/07 11:56:24;;;;;;;7.30;4.72;;;23.50;85.30;;;;;;5091770;28;20058;-82
2021/09/07 11:58:51;;;;;;;6.72;4.60;;;23.60;84.60;;;;;;5090833;28;20048;-83
2021/09/07 12:01:22;;;;;;;6.50;4.60;;;23.70;82.30;;;;;;5091082;28;20044;-83
2021/09/07 12:03:52;;;;;;;6.20;4.57;;;23.80;82.00;;;;;;5091242;28;20089;-82
2021/09/07 12:06:32;;;;;;;6.38;4.38;;;23.90;80.40;;;;;;5091311;28;20466;-83
2021/09/07 12:09:14;;;;;;;6.30;4.07;;;24.00;78.50;;;;;;5071036;28;20087;-81
2021/09/07 12:11:43;;;;;;;7.30;4.80;;;24.10;78.00;;;;;;5070741;28;20468;-82
2021/09/07 12:14:13;;;;;;;6.72;4.57;;;24.20;77.20;;;;;;5071059;28;20044;-84
2021/09/07 12:16:56;;;;;;;6.55;4.40;;;24.30;75.70;;;;;;5070922;28;20478;-82
2021/09/07 12:19:32;;;;;;;8.38;4.55;;;24.40;74.40;;;;;;5070767;28;20054;-83
2021/09/07 12:22:19;;;;;;;5.82;4.10;;;24.60;74.30;;;;;;5078598;28;20139;-83
2021/09/07 12:25:03;;;;;;;5.63;4.38;;;24.70;73.60;;;;;;5090062;28;20563;-83
2021/09/07 12:27:33;;;;;;;6.30;4.40;;;24.80;72.80;;;;;;5090022;28;20052;-84
2021/09/07 12:30:16;;;;;;;7.18;4.85;;;24.90;70.90;;;;;;5089712;28;20047;-83
2021/09/07 12:32:54;;;;;;;7.97;4.03;;;25.00;68.80;;;;;;5090641;28;20048;-83
2021/09/07 12:35:39;;;;;;;6.57;4.55;;;25.00;67.70;;;;;;5090227;28;20072;-83
2021/09/07 12:38:09;;;;;;;6.57;4.40;;;25.20;67.30;;;;;;5089969;28;20044;-83
2021/09/07 12:40:40;;;;;;;6.97;4.45;;;25.30;66.60;;;;;;5090045;28;20429;-83
2021/09/07 12:43:09;;;;;;;5.93;4.05;;;25.40;66.00;;;;;;5090435;28;20131;-81
2021/09/07 12:45:36;;;;;;;5.90;4.35;;;25.60;65.90;;;;;;5090418;28;20059;-81
2021/09/07 12:48:04;;;;;;;5.93;4.20;;;25.60;64.70;;;;;;5090307;28;20416;-82
2021/09/07 12:50:33;;;;;;;7.43;4.80;;;25.70;64.40;;;;;;5089962;28;20052;-82
2021/09/07 12:53:00;;;;;;;6.10;4.03;;;25.80;64.50;;;;;;5090141;28;20074;-82
2021/09/07 12:55:27;;;;;;;6.88;4.20;;;25.90;64.40;;;;;;5089760;28;20048;-81
2021/09/07 12:57:56;;;;;;;6.05;4.25;;;26.10;62.70;;;;;;5089697;28;20051;-82